sensor_id;sensor_type;location;lat;lon;timestamp;temperature;humidity
25753;DHT22;13600;50.816;4.416;2022-11-15T00:00:47;12.50;99.90
25753;DHT22;13600;50.816;4.416;2022-11-15T00:03:14;12.50;99.90
25753;DHT22;13600;50.816;4.416;2022-11-15T00:05:40;12.50;99.90
25753;DHT22;13600;50.816;4.416;2022-11-15T00:08:06;12.50;99.90
25753;DHT22;13600;50.816;4.416;2022-11-15T00:10:31;12.50;99.90
25753;DHT22;13600;50.816;4.416;2022-11-15T00:12:57;12.50;99.90
25753;DHT22;13600;50.816;4.416;2022-11-15T00:15:23;12.50;99.90
25753;DHT22;13600;50.816;4.416;2022-11-15T00:17:49;12.60;99.90
25753;DHT22;13600;50.816;4.416;2022-11-15T00:20:16;12.70;99.90
25753;DHT22;13600;50.816;4.416;2022-11-15T00:22:42;12.70;99.90
25753;DHT22;13600;50.816;4.416;2022-11-15T00:25:08;12.70;99.90
25753;DHT22;13600;50.816;4.416;2022-11-15T00:27:33;12.60;99.90
25753;DHT22;13600;50.816;4.416;2022-11-15T00:30:00;12.60;99.90
25753;DHT22;13600;50.816;4.416;2022-11-15T00:32:26;12.60;99.90
25753;DHT22;13600;50.816;4.416;2022-11-15T00:34:56;12.50;99.90
25753;DHT22;13600;50.816;4.416;2022-11-15T00:37:21;12.60;99.90
25753;DHT22;13600;50.816;4.416;2022-11-15T00:39:47;12.60;99.90
25753;DHT22;13600;50.816;4.416;2022-11-15T00:42:13;12.70;99.90
25753;DHT22;13600;50.816;4.416;2022-11-15T00:44:38;12.70;99.90
25753;DHT22;13600;50.816;4.416;2022-11-15T00:47:04;12.80;99.90
25753;DHT22;13600;50.816;4.416;2022-11-15T00:49:29;12.90;99.90
25753;DHT22;13600;50.816;4.416;2022-11-15T00:51:55;13.00;99.90
25753;DHT22;13600;50.816;4.416;2022-11-15T00:54:21;13.10;99.90
25753;DHT22;13600;50.816;4.416;2022-11-15T00:56:46;13.20;99.90
25753;DHT22;13600;50.816;4.416;2022-11-15T00:59:12;13.10;99.90
25753;DHT22;13600;50.816;4.416;2022-11-15T01:01:37;13.10;99.90
25753;DHT22;13600;50.816;4.416;2022-11-15T01:04:03;13.00;99.90
25753;DHT22;13600;50.816;4.416;2022-11-15T01:06:29;12.90;99.90
25753;DHT22;13600;50.816;4.416;2022-11-15T01:08:54;12.90;99.90
25753;DHT22;13600;50.816;4.416;2022-11-15T01:11:20;13.00;99.90
25753;DHT22;13600;50.816;4.416;2022-11-15T01:13:46;13.10;99.90
25753;DHT22;13600;50.816;4.416;2022-11-15T01:16:17;13.20;99.90
25753;DHT22;13600;50.816;4.416;2022-11-15T01:18:44;13.10;99.90
25753;DHT22;13600;50.816;4.416;2022-11-15T01:21:13;13.00;99.90
25753;DHT22;13600;50.816;4.416;2022-11-15T01:23:39;13.00;99.90
25753;DHT22;13600;50.816;4.416;2022-11-15T01:26:07;12.90;99.90
25753;DHT22;13600;50.816;4.416;2022-11-15T01:28:35;13.00;99.90
25753;DHT22;13600;50.816;4.416;2022-11-15T01:31:02;12.90;99.90
25753;DHT22;13600;50.816;4.416;2022-11-15T01:33:29;12.90;99.90
25753;DHT22;13600;50.816;4.416;2022-11-15T01:35:55;13.00;99.90
25753;DHT22;13600;50.816;4.416;2022-11-15T01:38:21;13.10;99.90
25753;DHT22;13600;50.816;4.416;2022-11-15T01:40:46;13.20;99.90
25753;DHT22;13600;50.816;4.416;2022-11-15T01:43:33;13.40;99.90
25753;DHT22;13600;50.816;4.416;2022-11-15T01:46:19;13.20;99.90
25753;DHT22;13600;50.816;4.416;2022-11-15T01:48:50;13.20;99.90
25753;DHT22;13600;50.816;4.416;2022-11-15T01:51:19;13.10;99.90
25753;DHT22;13600;50.816;4.416;2022-11-15T01:53:47;13.00;99.90
25753;DHT22;13600;50.816;4.416;2022-11-15T01:56:18;13.00;99.90
25753;DHT22;13600;50.816;4.416;2022-11-15T01:58:45;13.00;99.90
25753;DHT22;13600;50.816;4.416;2022-11-15T02:01:12;13.10;99.90
25753;DHT22;13600;50.816;4.416;2022-11-15T02:03:56;13.30;99.90
25753;DHT22;13600;50.816;4.416;2022-11-15T02:06:24;13.30;99.90
25753;DHT22;13600;50.816;4.416;2022-11-15T02:08:50;13.10;99.90
25753;DHT22;13600;50.816;4.416;2022-11-15T02:11:16;13.10;99.90
25753;DHT22;13600;50.816;4.416;2022-11-15T02:13:42;13.10;99.90
25753;DHT22;13600;50.816;4.416;2022-11-15T02:18:59;13.10;99.90
25753;DHT22;13600;50.816;4.416;2022-11-15T02:36:44;13.10;99.90
25753;DHT22;13600;50.816;4.416;2022-11-15T02:39:23;13.00;99.90
25753;DHT22;13600;50.816;4.416;2022-11-15T02:42:04;13.10;99.90
25753;DHT22;13600;50.816;4.416;2022-11-15T02:44:52;13.00;99.90
25753;DHT22;13600;50.816;4.416;2022-11-15T02:47:22;13.20;99.90
25753;DHT22;13600;50.816;4.416;2022-11-15T02:49:54;13.10;99.90
25753;DHT22;13600;50.816;4.416;2022-11-15T02:52:24;13.00;99.90
25753;DHT22;13600;50.816;4.416;2022-11-15T02:54:59;13.00;99.90
25753;DHT22;13600;50.816;4.416;2022-11-15T02:57:51;13.00;99.90
25753;DHT22;13600;50.816;4.416;2022-11-15T03:00:14;13.00;99.90
25753;DHT22;13600;50.816;4.416;2022-11-15T03:03:18;13.00;99.90
25753;DHT22;13600;50.816;4.416;2022-11-15T03:11:11;13.20;99.90
25753;DHT22;13600;50.816;4.416;2022-11-15T03:22:04;12.90;99.90
25753;DHT22;13600;50.816;4.416;2022-11-15T03:24:33;13.10;99.90
25753;DHT22;13600;50.816;4.416;2022-11-15T03:27:02;13.00;99.90
25753;DHT22;13600;50.816;4.416;2022-11-15T03:29:32;12.90;99.90
25753;DHT22;13600;50.816;4.416;2022-11-15T03:32:11;12.90;99.90
25753;DHT22;13600;50.816;4.416;2022-11-15T03:34:57;13.00;99.90
25753;DHT22;13600;50.816;4.416;2022-11-15T03:37:32;13.10;99.90
25753;DHT22;13600;50.816;4.416;2022-11-15T03:39:59;13.10;99.90
25753;DHT22;13600;50.816;4.416;2022-11-15T03:42:38;12.90;99.90
25753;DHT22;13600;50.816;4.416;2022-11-15T03:45:19;13.00;99.90
25753;DHT22;13600;50.816;4.416;2022-11-15T03:47:59;13.10;99.90
25753;DHT22;13600;50.816;4.416;2022-11-15T03:50:27;13.10;99.90
25753;DHT22;13600;50.816;4.416;2022-11-15T03:52:55;13.10;99.90
25753;DHT22;13600;50.816;4.416;2022-11-15T03:55:22;13.00;99.90
25753;DHT22;13600;50.816;4.416;2022-11-15T03:57:52;12.90;99.90
25753;DHT22;13600;50.816;4.416;2022-11-15T04:00:18;12.90;99.90
25753;DHT22;13600;50.816;4.416;2022-11-15T04:02:44;12.90;99.90
25753;DHT22;13600;50.816;4.416;2022-11-15T04:05:09;12.80;99.90
25753;DHT22;13600;50.816;4.416;2022-11-15T04:07:35;12.80;99.90
25753;DHT22;13600;50.816;4.416;2022-11-15T04:10:01;12.80;99.90
25753;DHT22;13600;50.816;4.416;2022-11-15T04:12:34;12.80;99.90
25753;DHT22;13600;50.816;4.416;2022-11-15T04:15:06;12.80;99.90
25753;DHT22;13600;50.816;4.416;2022-11-15T04:20:03;12.90;99.90
25753;DHT22;13600;50.816;4.416;2022-11-15T04:22:48;13.00;99.90
25753;DHT22;13600;50.816;4.416;2022-11-15T04:25:33;13.00;99.90
25753;DHT22;13600;50.816;4.416;2022-11-15T04:27:58;12.80;99.90
25753;DHT22;13600;50.816;4.416;2022-11-15T04:30:24;13.10;99.90
25753;DHT22;13600;50.816;4.416;2022-11-15T04:32:50;13.00;99.90
25753;DHT22;13600;50.816;4.416;2022-11-15T04:35:15;12.90;99.90
25753;DHT22;13600;50.816;4.416;2022-11-15T04:37:41;12.80;99.90
25753;DHT22;13600;50.816;4.416;2022-11-15T04:40:07;12.60;99.90
25753;DHT22;13600;50.816;4.416;2022-11-15T04:42:33;12.60;99.90
25753;DHT22;13600;50.816;4.416;2022-11-15T04:44:58;12.40;99.90
25753;DHT22;13600;50.816;4.416;2022-11-15T04:47:24;12.40;99.90
25753;DHT22;13600;50.816;4.416;2022-11-15T04:49:51;12.40;99.90
25753;DHT22;13600;50.816;4.416;2022-11-15T04:52:16;12.30;99.90
25753;DHT22;13600;50.816;4.416;2022-11-15T04:54:42;12.40;99.90
25753;DHT22;13600;50.816;4.416;2022-11-15T04:57:08;12.40;99.90
25753;DHT22;13600;50.816;4.416;2022-11-15T04:59:34;12.50;99.90
25753;DHT22;13600;50.816;4.416;2022-11-15T05:02:00;12.40;99.90
25753;DHT22;13600;50.816;4.416;2022-11-15T05:04:26;12.40;99.90
25753;DHT22;13600;50.816;4.416;2022-11-15T05:06:52;12.40;99.90
25753;DHT22;13600;50.816;4.416;2022-11-15T05:09:19;12.40;99.90
25753;DHT22;13600;50.816;4.416;2022-11-15T05:11:45;12.40;99.90
25753;DHT22;13600;50.816;4.416;2022-11-15T05:14:12;12.20;99.90
25753;DHT22;13600;50.816;4.416;2022-11-15T05:16:38;12.10;99.90
25753;DHT22;13600;50.816;4.416;2022-11-15T05:19:04;12.00;99.90
25753;DHT22;13600;50.816;4.416;2022-11-15T05:21:30;12.00;99.90
25753;DHT22;13600;50.816;4.416;2022-11-15T05:23:56;12.10;99.90
25753;DHT22;13600;50.816;4.416;2022-11-15T05:26:22;12.00;99.90
25753;DHT22;13600;50.816;4.416;2022-11-15T05:28:54;12.10;99.90
25753;DHT22;13600;50.816;4.416;2022-11-15T05:31:21;12.00;99.90
25753;DHT22;13600;50.816;4.416;2022-11-15T05:33:47;11.80;99.90
25753;DHT22;13600;50.816;4.416;2022-11-15T05:38:43;11.60;99.90
25753;DHT22;13600;50.816;4.416;2022-11-15T05:41:09;11.70;99.90
25753;DHT22;13600;50.816;4.416;2022-11-15T05:43:38;11.60;99.90
25753;DHT22;13600;50.816;4.416;2022-11-15T05:46:05;11.50;99.90
25753;DHT22;13600;50.816;4.416;2022-11-15T05:48:32;11.40;99.90
25753;DHT22;13600;50.816;4.416;2022-11-15T05:50:59;11.40;99.90
25753;DHT22;13600;50.816;4.416;2022-11-15T05:53:26;11.50;99.90
25753;DHT22;13600;50.816;4.416;2022-11-15T05:55:53;11.60;99.90
25753;DHT22;13600;50.816;4.416;2022-11-15T05:58:24;11.70;99.90
25753;DHT22;13600;50.816;4.416;2022-11-15T06:00:50;11.50;99.90
25753;DHT22;13600;50.816;4.416;2022-11-15T06:03:15;11.40;99.90
25753;DHT22;13600;50.816;4.416;2022-11-15T06:05:41;11.40;99.90
25753;DHT22;13600;50.816;4.416;2022-11-15T06:08:07;11.40;99.90
25753;DHT22;13600;50.816;4.416;2022-11-15T06:10:32;11.30;99.90
25753;DHT22;13600;50.816;4.416;2022-11-15T06:12:59;11.40;99.90
25753;DHT22;13600;50.816;4.416;2022-11-15T06:15:25;11.20;99.90
25753;DHT22;13600;50.816;4.416;2022-11-15T06:17:52;11.10;99.90
25753;DHT22;13600;50.816;4.416;2022-11-15T06:20:18;11.10;99.90
25753;DHT22;13600;50.816;4.416;2022-11-15T06:22:43;11.00;99.90
25753;DHT22;13600;50.816;4.416;2022-11-15T06:25:09;10.80;99.90
25753;DHT22;13600;50.816;4.416;2022-11-15T06:27:34;10.90;99.90
25753;DHT22;13600;50.816;4.416;2022-11-15T06:30:00;10.90;99.90
25753;DHT22;13600;50.816;4.416;2022-11-15T06:32:29;10.90;99.90
25753;DHT22;13600;50.816;4.416;2022-11-15T06:34:55;10.90;99.90
25753;DHT22;13600;50.816;4.416;2022-11-15T06:37:21;10.80;99.90
25753;DHT22;13600;50.816;4.416;2022-11-15T06:39:46;10.90;99.90
25753;DHT22;13600;50.816;4.416;2022-11-15T06:42:13;10.90;99.90
25753;DHT22;13600;50.816;4.416;2022-11-15T06:44:39;10.80;99.90
25753;DHT22;13600;50.816;4.416;2022-11-15T06:47:04;10.80;99.90
25753;DHT22;13600;50.816;4.416;2022-11-15T06:49:30;10.80;99.90
25753;DHT22;13600;50.816;4.416;2022-11-15T06:51:55;10.80;99.90
25753;DHT22;13600;50.816;4.416;2022-11-15T06:54:21;10.70;99.90
25753;DHT22;13600;50.816;4.416;2022-11-15T06:56:48;10.70;99.90
25753;DHT22;13600;50.816;4.416;2022-11-15T06:59:14;10.70;99.90
25753;DHT22;13600;50.816;4.416;2022-11-15T07:01:40;10.80;99.90
25753;DHT22;13600;50.816;4.416;2022-11-15T07:04:05;10.80;99.90
25753;DHT22;13600;50.816;4.416;2022-11-15T07:06:31;10.80;99.90
25753;DHT22;13600;50.816;4.416;2022-11-15T07:08:56;10.70;99.90
25753;DHT22;13600;50.816;4.416;2022-11-15T07:11:22;10.60;99.90
25753;DHT22;13600;50.816;4.416;2022-11-15T07:13:47;10.60;99.90
25753;DHT22;13600;50.816;4.416;2022-11-15T07:16:13;10.70;99.90
25753;DHT22;13600;50.816;4.416;2022-11-15T07:18:40;10.60;99.90
25753;DHT22;13600;50.816;4.416;2022-11-15T07:21:08;10.60;99.90
25753;DHT22;13600;50.816;4.416;2022-11-15T07:23:39;10.50;99.90
25753;DHT22;13600;50.816;4.416;2022-11-15T07:26:05;10.50;99.90
25753;DHT22;13600;50.816;4.416;2022-11-15T07:28:33;10.60;99.90
25753;DHT22;13600;50.816;4.416;2022-11-15T07:31:03;10.60;99.90
25753;DHT22;13600;50.816;4.416;2022-11-15T07:33:30;10.70;99.90
25753;DHT22;13600;50.816;4.416;2022-11-15T07:36:00;10.60;99.90
25753;DHT22;13600;50.816;4.416;2022-11-15T07:38:29;10.60;99.90
25753;DHT22;13600;50.816;4.416;2022-11-15T07:41:01;10.60;99.90
25753;DHT22;13600;50.816;4.416;2022-11-15T07:43:28;10.50;99.90
25753;DHT22;13600;50.816;4.416;2022-11-15T07:45:55;10.50;99.90
25753;DHT22;13600;50.816;4.416;2022-11-15T07:48:22;10.60;99.90
25753;DHT22;13600;50.816;4.416;2022-11-15T07:50:48;10.40;99.90
25753;DHT22;13600;50.816;4.416;2022-11-15T07:53:14;10.60;99.90
25753;DHT22;13600;50.816;4.416;2022-11-15T07:55:41;10.60;99.90
25753;DHT22;13600;50.816;4.416;2022-11-15T07:58:09;10.60;99.90
25753;DHT22;13600;50.816;4.416;2022-11-15T08:00:35;10.60;99.90
25753;DHT22;13600;50.816;4.416;2022-11-15T08:03:06;10.60;99.90
25753;DHT22;13600;50.816;4.416;2022-11-15T08:05:34;10.60;99.90
25753;DHT22;13600;50.816;4.416;2022-11-15T08:07:59;10.70;99.90
25753;DHT22;13600;50.816;4.416;2022-11-15T08:10:26;10.90;99.90
25753;DHT22;13600;50.816;4.416;2022-11-15T08:13:06;10.90;99.90
25753;DHT22;13600;50.816;4.416;2022-11-15T08:15:33;10.90;99.90
25753;DHT22;13600;50.816;4.416;2022-11-15T08:18:01;11.10;99.90
25753;DHT22;13600;50.816;4.416;2022-11-15T08:20:28;11.20;99.90
25753;DHT22;13600;50.816;4.416;2022-11-15T08:22:58;11.30;99.90
25753;DHT22;13600;50.816;4.416;2022-11-15T08:25:25;11.30;99.90
25753;DHT22;13600;50.816;4.416;2022-11-15T08:27:55;11.50;99.90
25753;DHT22;13600;50.816;4.416;2022-11-15T08:30:21;11.50;99.90
25753;DHT22;13600;50.816;4.416;2022-11-15T08:32:48;11.60;99.90
25753;DHT22;13600;50.816;4.416;2022-11-15T08:35:14;11.60;99.90
25753;DHT22;13600;50.816;4.416;2022-11-15T08:37:39;11.70;99.90
25753;DHT22;13600;50.816;4.416;2022-11-15T08:40:06;11.70;99.90
25753;DHT22;13600;50.816;4.416;2022-11-15T08:42:31;11.70;99.90
25753;DHT22;13600;50.816;4.416;2022-11-15T08:44:57;11.70;99.90
25753;DHT22;13600;50.816;4.416;2022-11-15T08:47:22;11.60;99.90
25753;DHT22;13600;50.816;4.416;2022-11-15T08:49:49;11.70;99.90
25753;DHT22;13600;50.816;4.416;2022-11-15T08:52:14;11.50;99.90
25753;DHT22;13600;50.816;4.416;2022-11-15T08:54:40;11.50;99.90
25753;DHT22;13600;50.816;4.416;2022-11-15T08:57:06;11.60;99.90
25753;DHT22;13600;50.816;4.416;2022-11-15T08:59:32;11.60;99.90
25753;DHT22;13600;50.816;4.416;2022-11-15T09:01:57;11.50;99.90
25753;DHT22;13600;50.816;4.416;2022-11-15T09:04:23;11.50;99.90
25753;DHT22;13600;50.816;4.416;2022-11-15T09:06:49;11.50;99.90
25753;DHT22;13600;50.816;4.416;2022-11-15T09:09:14;11.60;99.90
25753;DHT22;13600;50.816;4.416;2022-11-15T09:11:40;11.80;99.90
25753;DHT22;13600;50.816;4.416;2022-11-15T09:14:05;12.00;99.90
25753;DHT22;13600;50.816;4.416;2022-11-15T09:16:31;12.00;99.90
25753;DHT22;13600;50.816;4.416;2022-11-15T09:18:57;12.00;99.90
25753;DHT22;13600;50.816;4.416;2022-11-15T09:21:22;12.00;99.90
25753;DHT22;13600;50.816;4.416;2022-11-15T09:23:50;12.00;99.90
25753;DHT22;13600;50.816;4.416;2022-11-15T09:26:18;11.90;99.90
25753;DHT22;13600;50.816;4.416;2022-11-15T09:28:44;12.00;99.90
25753;DHT22;13600;50.816;4.416;2022-11-15T09:31:09;12.10;99.90
25753;DHT22;13600;50.816;4.416;2022-11-15T09:33:35;12.20;99.90
25753;DHT22;13600;50.816;4.416;2022-11-15T09:36:05;12.30;99.90
25753;DHT22;13600;50.816;4.416;2022-11-15T09:38:31;12.20;99.90
25753;DHT22;13600;50.816;4.416;2022-11-15T09:44:16;12.10;99.90
25753;DHT22;13600;50.816;4.416;2022-11-15T09:50:10;12.30;99.90
25753;DHT22;13600;50.816;4.416;2022-11-15T09:52:39;12.40;99.90
25753;DHT22;13600;50.816;4.416;2022-11-15T09:55:10;12.40;99.90
25753;DHT22;13600;50.816;4.416;2022-11-15T09:57:44;12.30;99.90
25753;DHT22;13600;50.816;4.416;2022-11-15T10:00:34;12.50;99.90
25753;DHT22;13600;50.816;4.416;2022-11-15T10:05:31;12.60;99.90
25753;DHT22;13600;50.816;4.416;2022-11-15T10:10:57;12.90;99.90
25753;DHT22;13600;50.816;4.416;2022-11-15T10:13:31;12.90;99.90
25753;DHT22;13600;50.816;4.416;2022-11-15T10:22:00;13.40;99.90
25753;DHT22;13600;50.816;4.416;2022-11-15T10:24:30;13.50;99.90
25753;DHT22;13600;50.816;4.416;2022-11-15T10:27:00;13.60;99.90
25753;DHT22;13600;50.816;4.416;2022-11-15T10:29:26;13.70;99.90
25753;DHT22;13600;50.816;4.416;2022-11-15T10:31:51;13.80;99.90
25753;DHT22;13600;50.816;4.416;2022-11-15T10:34:23;13.90;99.90
25753;DHT22;13600;50.816;4.416;2022-11-15T10:36:59;14.10;99.90
25753;DHT22;13600;50.816;4.416;2022-11-15T10:39:27;14.00;99.90
25753;DHT22;13600;50.816;4.416;2022-11-15T10:41:53;14.00;99.90
25753;DHT22;13600;50.816;4.416;2022-11-15T10:44:24;14.10;99.90
25753;DHT22;13600;50.816;4.416;2022-11-15T10:49:26;14.30;99.90
25753;DHT22;13600;50.816;4.416;2022-11-15T10:52:17;14.60;99.90
25753;DHT22;13600;50.816;4.416;2022-11-15T10:54:53;14.70;99.90
25753;DHT22;13600;50.816;4.416;2022-11-15T10:57:22;14.70;99.90
25753;DHT22;13600;50.816;4.416;2022-11-15T10:59:52;14.60;99.90
25753;DHT22;13600;50.816;4.416;2022-11-15T11:05:01;15.00;99.90
25753;DHT22;13600;50.816;4.416;2022-11-15T11:07:30;15.30;99.90
25753;DHT22;13600;50.816;4.416;2022-11-15T11:10:03;15.30;99.90
25753;DHT22;13600;50.816;4.416;2022-11-15T11:12:31;15.40;99.90
25753;DHT22;13600;50.816;4.416;2022-11-15T11:15:02;15.30;99.90
25753;DHT22;13600;50.816;4.416;2022-11-15T11:18:06;15.30;99.90
25753;DHT22;13600;50.816;4.416;2022-11-15T11:25:56;15.10;99.90
25753;DHT22;13600;50.816;4.416;2022-11-15T11:33:31;15.50;99.90
25753;DHT22;13600;50.816;4.416;2022-11-15T11:43:57;15.00;99.90
25753;DHT22;13600;50.816;4.416;2022-11-15T11:46:56;14.90;99.90
25753;DHT22;13600;50.816;4.416;2022-11-15T11:49:33;14.70;99.90
25753;DHT22;13600;50.816;4.416;2022-11-15T12:00:04;14.50;99.90
25753;DHT22;13600;50.816;4.416;2022-11-15T12:02:36;14.50;99.90
25753;DHT22;13600;50.816;4.416;2022-11-15T12:05:13;14.40;99.90
25753;DHT22;13600;50.816;4.416;2022-11-15T12:07:43;14.40;99.90
25753;DHT22;13600;50.816;4.416;2022-11-15T12:10:28;14.40;99.90
25753;DHT22;13600;50.816;4.416;2022-11-15T12:13:16;14.30;99.90
25753;DHT22;13600;50.816;4.416;2022-11-15T12:15:51;14.20;99.90
25753;DHT22;13600;50.816;4.416;2022-11-15T12:18:18;14.20;99.90
25753;DHT22;13600;50.816;4.416;2022-11-15T12:21:02;14.20;99.90
25753;DHT22;13600;50.816;4.416;2022-11-15T12:23:37;14.20;99.90
25753;DHT22;13600;50.816;4.416;2022-11-15T12:26:20;14.20;99.90
25753;DHT22;13600;50.816;4.416;2022-11-15T12:28:53;14.30;99.90
25753;DHT22;13600;50.816;4.416;2022-11-15T12:34:02;14.30;99.90
25753;DHT22;13600;50.816;4.416;2022-11-15T12:36:42;14.30;99.90
25753;DHT22;13600;50.816;4.416;2022-11-15T12:39:10;14.30;99.90
25753;DHT22;13600;50.816;4.416;2022-11-15T12:41:39;14.30;99.90
25753;DHT22;13600;50.816;4.416;2022-11-15T12:44:11;14.20;99.90
25753;DHT22;13600;50.816;4.416;2022-11-15T12:59:55;14.60;99.90
25753;DHT22;13600;50.816;4.416;2022-11-15T13:02:36;14.70;99.90
25753;DHT22;13600;50.816;4.416;2022-11-15T13:17:49;15.00;99.90
25753;DHT22;13600;50.816;4.416;2022-11-15T13:28:32;14.80;99.90
25753;DHT22;13600;50.816;4.416;2022-11-15T13:31:00;14.80;99.90
25753;DHT22;13600;50.816;4.416;2022-11-15T13:33:35;14.70;99.90
25753;DHT22;13600;50.816;4.416;2022-11-15T13:36:07;14.70;99.90
25753;DHT22;13600;50.816;4.416;2022-11-15T13:38:37;14.70;99.90
25753;DHT22;13600;50.816;4.416;2022-11-15T13:41:33;14.50;99.90
25753;DHT22;13600;50.816;4.416;2022-11-15T13:44:00;14.40;99.90
25753;DHT22;13600;50.816;4.416;2022-11-15T13:46:31;14.60;99.90
25753;DHT22;13600;50.816;4.416;2022-11-15T13:49:03;14.60;99.90
25753;DHT22;13600;50.816;4.416;2022-11-15T13:56:47;14.80;99.90
25753;DHT22;13600;50.816;4.416;2022-11-15T13:59:25;14.80;99.90
25753;DHT22;13600;50.816;4.416;2022-11-15T14:01:53;14.80;99.90
25753;DHT22;13600;50.816;4.416;2022-11-15T14:04:22;14.80;99.90
25753;DHT22;13600;50.816;4.416;2022-11-15T14:06:54;14.80;99.90
25753;DHT22;13600;50.816;4.416;2022-11-15T14:09:39;14.70;99.90
25753;DHT22;13600;50.816;4.416;2022-11-15T14:12:31;14.60;99.90
25753;DHT22;13600;50.816;4.416;2022-11-15T14:14:59;14.60;99.90
25753;DHT22;13600;50.816;4.416;2022-11-15T14:19:57;14.60;99.90
25753;DHT22;13600;50.816;4.416;2022-11-15T14:22:24;14.60;99.90
25753;DHT22;13600;50.816;4.416;2022-11-15T14:25:15;14.50;99.90
25753;DHT22;13600;50.816;4.416;2022-11-15T14:27:43;14.50;99.90
25753;DHT22;13600;50.816;4.416;2022-11-15T14:30:16;14.60;99.90
25753;DHT22;13600;50.816;4.416;2022-11-15T14:32:50;14.50;99.90
25753;DHT22;13600;50.816;4.416;2022-11-15T14:35:20;14.50;99.90
25753;DHT22;13600;50.816;4.416;2022-11-15T14:37:46;14.40;99.90
25753;DHT22;13600;50.816;4.416;2022-11-15T14:40:15;14.30;99.90
25753;DHT22;13600;50.816;4.416;2022-11-15T14:42:41;14.20;99.90
25753;DHT22;13600;50.816;4.416;2022-11-15T14:45:13;14.10;99.90
25753;DHT22;13600;50.816;4.416;2022-11-15T14:47:40;14.10;99.90
25753;DHT22;13600;50.816;4.416;2022-11-15T14:50:06;14.00;99.90
25753;DHT22;13600;50.816;4.416;2022-11-15T14:52:33;14.00;99.90
25753;DHT22;13600;50.816;4.416;2022-11-15T14:55:00;14.00;99.90
25753;DHT22;13600;50.816;4.416;2022-11-15T14:57:28;13.90;99.90
25753;DHT22;13600;50.816;4.416;2022-11-15T14:59:54;13.90;99.90
25753;DHT22;13600;50.816;4.416;2022-11-15T15:02:22;14.00;99.90
25753;DHT22;13600;50.816;4.416;2022-11-15T15:04:48;14.20;99.90
25753;DHT22;13600;50.816;4.416;2022-11-15T15:07:14;14.20;99.90
25753;DHT22;13600;50.816;4.416;2022-11-15T15:09:40;14.10;99.90
25753;DHT22;13600;50.816;4.416;2022-11-15T15:12:22;14.10;99.90
25753;DHT22;13600;50.816;4.416;2022-11-15T15:14:49;13.90;99.90
25753;DHT22;13600;50.816;4.416;2022-11-15T15:17:15;13.80;99.90
25753;DHT22;13600;50.816;4.416;2022-11-15T15:19:41;13.70;99.90
25753;DHT22;13600;50.816;4.416;2022-11-15T15:22:14;13.60;99.90
25753;DHT22;13600;50.816;4.416;2022-11-15T15:24:41;13.70;99.90
25753;DHT22;13600;50.816;4.416;2022-11-15T15:27:06;13.70;99.90
25753;DHT22;13600;50.816;4.416;2022-11-15T15:29:32;13.60;99.90
25753;DHT22;13600;50.816;4.416;2022-11-15T15:31:57;13.50;99.90
25753;DHT22;13600;50.816;4.416;2022-11-15T15:34:23;13.50;99.90
25753;DHT22;13600;50.816;4.416;2022-11-15T15:36:48;13.40;99.90
25753;DHT22;13600;50.816;4.416;2022-11-15T15:39:14;13.50;99.90
25753;DHT22;13600;50.816;4.416;2022-11-15T15:41:40;13.40;99.90
25753;DHT22;13600;50.816;4.416;2022-11-15T15:44:06;13.40;99.90
25753;DHT22;13600;50.816;4.416;2022-11-15T15:46:34;13.40;99.90
25753;DHT22;13600;50.816;4.416;2022-11-15T15:49:00;13.30;99.90
25753;DHT22;13600;50.816;4.416;2022-11-15T15:51:25;13.20;99.90
25753;DHT22;13600;50.816;4.416;2022-11-15T15:53:51;13.20;99.90
25753;DHT22;13600;50.816;4.416;2022-11-15T15:56:22;13.20;99.90
25753;DHT22;13600;50.816;4.416;2022-11-15T15:58:47;13.10;99.90
25753;DHT22;13600;50.816;4.416;2022-11-15T16:01:14;13.20;99.90
25753;DHT22;13600;50.816;4.416;2022-11-15T16:03:39;13.20;99.90
25753;DHT22;13600;50.816;4.416;2022-11-15T16:06:36;13.30;99.90
25753;DHT22;13600;50.816;4.416;2022-11-15T16:09:03;13.30;99.90
25753;DHT22;13600;50.816;4.416;2022-11-15T16:11:29;13.30;99.90
25753;DHT22;13600;50.816;4.416;2022-11-15T16:14:02;13.20;99.90
25753;DHT22;13600;50.816;4.416;2022-11-15T16:16:27;13.10;99.90
25753;DHT22;13600;50.816;4.416;2022-11-15T16:18:53;13.20;99.90
25753;DHT22;13600;50.816;4.416;2022-11-15T16:21:19;13.20;99.90
25753;DHT22;13600;50.816;4.416;2022-11-15T16:23:46;13.20;99.90
25753;DHT22;13600;50.816;4.416;2022-11-15T16:26:26;13.10;99.90
25753;DHT22;13600;50.816;4.416;2022-11-15T16:28:52;13.10;99.90
25753;DHT22;13600;50.816;4.416;2022-11-15T16:31:17;13.10;99.90
25753;DHT22;13600;50.816;4.416;2022-11-15T16:33:47;13.10;99.90
25753;DHT22;13600;50.816;4.416;2022-11-15T16:36:22;13.10;99.90
25753;DHT22;13600;50.816;4.416;2022-11-15T16:38:48;13.20;99.90
25753;DHT22;13600;50.816;4.416;2022-11-15T16:41:15;13.10;99.90
25753;DHT22;13600;50.816;4.416;2022-11-15T16:43:49;13.10;99.90
25753;DHT22;13600;50.816;4.416;2022-11-15T16:46:23;13.10;99.90
25753;DHT22;13600;50.816;4.416;2022-11-15T16:48:49;13.10;99.90
25753;DHT22;13600;50.816;4.416;2022-11-15T16:51:15;13.10;99.90
25753;DHT22;13600;50.816;4.416;2022-11-15T16:53:41;13.20;99.90
25753;DHT22;13600;50.816;4.416;2022-11-15T16:56:23;13.20;99.90
25753;DHT22;13600;50.816;4.416;2022-11-15T16:58:50;13.10;99.90
25753;DHT22;13600;50.816;4.416;2022-11-15T17:01:18;13.10;99.90
25753;DHT22;13600;50.816;4.416;2022-11-15T17:03:44;13.20;99.90
25753;DHT22;13600;50.816;4.416;2022-11-15T17:06:12;13.20;99.90
25753;DHT22;13600;50.816;4.416;2022-11-15T17:08:38;13.10;99.90
25753;DHT22;13600;50.816;4.416;2022-11-15T17:11:07;13.20;99.90
25753;DHT22;13600;50.816;4.416;2022-11-15T17:13:33;13.30;99.90
25753;DHT22;13600;50.816;4.416;2022-11-15T17:16:06;13.20;99.90
25753;DHT22;13600;50.816;4.416;2022-11-15T17:18:33;13.20;99.90
25753;DHT22;13600;50.816;4.416;2022-11-15T17:21:04;13.10;99.90
25753;DHT22;13600;50.816;4.416;2022-11-15T17:23:29;13.00;99.90
25753;DHT22;13600;50.816;4.416;2022-11-15T17:26:02;13.10;99.90
25753;DHT22;13600;50.816;4.416;2022-11-15T17:28:31;13.20;99.90
25753;DHT22;13600;50.816;4.416;2022-11-15T17:30:56;13.10;99.90
25753;DHT22;13600;50.816;4.416;2022-11-15T17:33:22;13.00;99.90
25753;DHT22;13600;50.816;4.416;2022-11-15T17:35:59;13.00;99.90
25753;DHT22;13600;50.816;4.416;2022-11-15T17:38:25;13.00;99.90
25753;DHT22;13600;50.816;4.416;2022-11-15T17:41:12;13.00;99.90
25753;DHT22;13600;50.816;4.416;2022-11-15T17:43:38;13.20;99.90
25753;DHT22;13600;50.816;4.416;2022-11-15T17:46:12;13.10;99.90
25753;DHT22;13600;50.816;4.416;2022-11-15T17:48:38;13.10;99.90
25753;DHT22;13600;50.816;4.416;2022-11-15T17:51:07;13.10;99.90
25753;DHT22;13600;50.816;4.416;2022-11-15T17:53:36;13.00;99.90